This is the latest recevied weather packets stored in our database for station/object F6JSP-13. If no packets are shown the sender has not sent any weather packets the latest 10 day(s).
| Time | Temp. | Humidity | Pressure | Rain* | Wind** | Luminosity | Snow |
|---|---|---|---|---|---|---|---|
| 1777478706 | 24.44° C | 50% | 1008.4 hPa | 0 mm | - | 186 W/m² | - |
| 1777477207 | 24.44° C | 48% | 1008.4 hPa | 0 mm | - | 247 W/m² | - |
| 1777475407 | 24.44° C | 47% | 1008.7 hPa | 0 mm | - | 306 W/m² | - |
| 1777474506 | 24.44° C | 48% | 1008.4 hPa | 0 mm | - | 511 W/m² | - |
| 1777473007 | 23.89° C | 50% | 1008.7 hPa | 0 mm | - | 248 W/m² | - |
| 1777471808 | 23.89° C | 49% | 1008.7 hPa | 0 mm | - | 365 W/m² | - |
| 1777471506 | 24.44° C | 49% | 1008.6 hPa | 0 mm | - | 278 W/m² | - |
| 1777470907 | 24.44° C | 48% | 1008.6 hPa | 0 mm | - | 494 W/m² | - |
| 1777470307 | 24.44° C | 50% | 1008.7 hPa | 0 mm | - | 772 W/m² | - |
| 1777469707 | 23.89° C | 49% | 1008.8 hPa | 0 mm | - | 327 W/m² | - |
| 1777465207 | 23.33° C | 51% | 1009.1 hPa | 0 mm | - | 319 W/m² | - |
| 1777461607 | 21.67° C | 60% | 1009.3 hPa | 0 mm | - | 400 W/m² | - |
| 1777461007 | 21.11° C | 61% | 1009.7 hPa | 0 mm | - | 351 W/m² | - |
| 1777460706 | 21.11° C | 62% | 1009.9 hPa | 0 mm | - | 388 W/m² | - |
| 1777459207 | 19.44° C | 71% | 1010.1 hPa | 0 mm | - | 494 W/m² | - |
| 1777455906 | 17.22° C | 74% | 1010.3 hPa | 0 mm | - | 198 W/m² | - |
| 1777455307 | 16.67° C | 74% | 1010.5 hPa | 0 mm | - | 223 W/m² | - |
| 1777449006 | 13.89° C | 77% | 1010.5 hPa | 0 mm | - | 144 W/m² | - |
| 1777442406 | 12.22° C | 78% | 1010.3 hPa | 0 mm | - | 28 W/m² | - |
| 1777441506 | 11.67° C | 78% | 1009.9 hPa | 0 mm | - | 24 W/m² | - |
| 1777438806 | 11.67° C | 75% | 1009.8 hPa | 0 mm | - | 2 W/m² | - |
| 1777436405 | 12.22° C | 74% | 1009.9 hPa | 0 mm | - | 0 W/m² | - |
| 1777434605 | 12.22° C | 72% | 1009.8 hPa | 0 mm | - | 0 W/m² | - |
| 1777434305 | 12.78° C | 72% | 1009.8 hPa | 0 mm | - | 0 W/m² | - |
| 1777433405 | 12.78° C | 71% | 1010 hPa | 0 mm | - | 0 W/m² | - |
* Rain latest hour (hover to see other rain measurements)
** Current wind speed in m/s (hover to see current wind gust speed)